Schubert, Missouri
Current Conditions -  °F | °C
As of 2:53 AM on Friday 31 Oct 2014 (Local Time) from KJEF Reporting Station
Overcast Overcast  
Wind Chill: 43°   Ceiling: 6500
Heat Index: 45°   Visibility: 10mi
Dew Point: 44°   Wind: 5mph
Humidity: 97%   Direction: 290°WNW
Pressure: 30.15"   Gusts: NA
Location:  38.5003°N, 92.1516°W
Report Text: KJEF 310753Z AUTO 29004KT 10SM OVC065 07/07 A3015 RMK AO2 SLP199 T00720067
Loading
Personal Weather Stations






























Interactive Weather Map
Tropical Storm Tracking
New forecast layout! Learn more

10-Day Weather Forecast

Advertisements
Track Severe Weather on mobile